sensor_id;sensor_type;location;lat;lon;timestamp;temperature;humidity
15819;DHT22;8010;53.986;12.106;2022-12-18T00:01:36;-6.80;99.90
15819;DHT22;8010;53.986;12.106;2022-12-18T00:04:06;-6.80;99.90
15819;DHT22;8010;53.986;12.106;2022-12-18T00:06:34;-6.80;99.90
15819;DHT22;8010;53.986;12.106;2022-12-18T00:09:00;-6.80;99.90
15819;DHT22;8010;53.986;12.106;2022-12-18T00:11:28;-6.80;99.90
15819;DHT22;8010;53.986;12.106;2022-12-18T00:13:56;-6.70;99.90
15819;DHT22;8010;53.986;12.106;2022-12-18T00:16:24;-6.80;99.90
15819;DHT22;8010;53.986;12.106;2022-12-18T00:18:53;-6.80;99.90
15819;DHT22;8010;53.986;12.106;2022-12-18T00:21:19;-6.70;99.90
15819;DHT22;8010;53.986;12.106;2022-12-18T00:23:47;-6.70;99.90
15819;DHT22;8010;53.986;12.106;2022-12-18T00:26:25;-6.80;99.90
15819;DHT22;8010;53.986;12.106;2022-12-18T00:28:51;-6.80;99.90
15819;DHT22;8010;53.986;12.106;2022-12-18T00:31:20;-6.90;99.90
15819;DHT22;8010;53.986;12.106;2022-12-18T00:33:46;-7.00;99.90
15819;DHT22;8010;53.986;12.106;2022-12-18T00:36:15;-7.00;99.90
15819;DHT22;8010;53.986;12.106;2022-12-18T00:38:41;-7.00;99.90
15819;DHT22;8010;53.986;12.106;2022-12-18T00:41:08;-7.00;99.90
15819;DHT22;8010;53.986;12.106;2022-12-18T00:43:35;-7.00;99.90
15819;DHT22;8010;53.986;12.106;2022-12-18T00:46:01;-7.00;99.90
15819;DHT22;8010;53.986;12.106;2022-12-18T00:48:26;-7.00;99.90
15819;DHT22;8010;53.986;12.106;2022-12-18T00:50:52;-7.00;99.90
15819;DHT22;8010;53.986;12.106;2022-12-18T00:53:18;-7.00;99.90
15819;DHT22;8010;53.986;12.106;2022-12-18T00:55:44;-7.00;99.90
15819;DHT22;8010;53.986;12.106;2022-12-18T00:58:11;-7.00;99.90
15819;DHT22;8010;53.986;12.106;2022-12-18T01:00:37;-6.80;99.90
15819;DHT22;8010;53.986;12.106;2022-12-18T01:03:03;-7.00;99.90
15819;DHT22;8010;53.986;12.106;2022-12-18T01:05:29;-7.00;99.90
15819;DHT22;8010;53.986;12.106;2022-12-18T01:07:55;-7.00;99.90
15819;DHT22;8010;53.986;12.106;2022-12-18T01:10:21;-7.00;99.90
15819;DHT22;8010;53.986;12.106;2022-12-18T01:12:47;-7.00;99.90
15819;DHT22;8010;53.986;12.106;2022-12-18T01:15:14;-7.00;99.90
15819;DHT22;8010;53.986;12.106;2022-12-18T01:17:41;-6.90;99.90
15819;DHT22;8010;53.986;12.106;2022-12-18T01:20:07;-6.90;99.90
15819;DHT22;8010;53.986;12.106;2022-12-18T01:22:34;-6.90;99.90
15819;DHT22;8010;53.986;12.106;2022-12-18T01:25:00;-6.90;99.90
15819;DHT22;8010;53.986;12.106;2022-12-18T01:27:26;-6.90;99.90
15819;DHT22;8010;53.986;12.106;2022-12-18T01:29:51;-6.90;99.90
15819;DHT22;8010;53.986;12.106;2022-12-18T01:32:17;-6.90;99.90
15819;DHT22;8010;53.986;12.106;2022-12-18T01:34:43;-6.90;99.90
15819;DHT22;8010;53.986;12.106;2022-12-18T01:37:08;-6.90;99.90
15819;DHT22;8010;53.986;12.106;2022-12-18T01:39:34;-6.90;99.90
15819;DHT22;8010;53.986;12.106;2022-12-18T01:42:01;-6.80;99.90
15819;DHT22;8010;53.986;12.106;2022-12-18T01:47:40;-6.90;99.90
15819;DHT22;8010;53.986;12.106;2022-12-18T01:52:50;-6.80;99.90
15819;DHT22;8010;53.986;12.106;2022-12-18T01:55:18;-6.70;99.90
15819;DHT22;8010;53.986;12.106;2022-12-18T01:57:45;-6.60;99.90
15819;DHT22;8010;53.986;12.106;2022-12-18T02:00:16;-6.50;99.90
15819;DHT22;8010;53.986;12.106;2022-12-18T02:02:43;-6.50;99.90
15819;DHT22;8010;53.986;12.106;2022-12-18T02:05:10;-6.40;99.90
15819;DHT22;8010;53.986;12.106;2022-12-18T02:08:03;-6.40;99.90
15819;DHT22;8010;53.986;12.106;2022-12-18T02:10:30;-6.30;99.90
15819;DHT22;8010;53.986;12.106;2022-12-18T02:13:18;-6.30;99.90
15819;DHT22;8010;53.986;12.106;2022-12-18T02:16:09;-6.30;99.90
15819;DHT22;8010;53.986;12.106;2022-12-18T02:18:43;-6.40;99.90
15819;DHT22;8010;53.986;12.106;2022-12-18T02:21:28;-6.40;99.90
15819;DHT22;8010;53.986;12.106;2022-12-18T02:26:43;-6.70;99.90
15819;DHT22;8010;53.986;12.106;2022-12-18T02:29:16;-6.80;99.90
15819;DHT22;8010;53.986;12.106;2022-12-18T02:31:47;-7.00;99.90
15819;DHT22;8010;53.986;12.106;2022-12-18T02:34:15;-7.10;99.90
15819;DHT22;8010;53.986;12.106;2022-12-18T02:36:42;-7.10;99.90
15819;DHT22;8010;53.986;12.106;2022-12-18T02:39:11;-7.20;99.90
15819;DHT22;8010;53.986;12.106;2022-12-18T02:41:38;-7.10;99.90
15819;DHT22;8010;53.986;12.106;2022-12-18T02:44:08;-7.10;99.90
15819;DHT22;8010;53.986;12.106;2022-12-18T02:46:37;-7.00;99.90
15819;DHT22;8010;53.986;12.106;2022-12-18T02:49:24;-6.80;99.90
15819;DHT22;8010;53.986;12.106;2022-12-18T02:52:12;-6.90;99.90
15819;DHT22;8010;53.986;12.106;2022-12-18T02:57:34;-6.90;99.90
15819;DHT22;8010;53.986;12.106;2022-12-18T03:02:39;-6.90;99.90
15819;DHT22;8010;53.986;12.106;2022-12-18T03:05:20;-6.90;99.90
15819;DHT22;8010;53.986;12.106;2022-12-18T03:07:59;-7.00;99.90
15819;DHT22;8010;53.986;12.106;2022-12-18T03:10:30;-7.00;99.90
15819;DHT22;8010;53.986;12.106;2022-12-18T03:13:03;-7.10;99.90
15819;DHT22;8010;53.986;12.106;2022-12-18T03:15:56;-7.10;99.90
15819;DHT22;8010;53.986;12.106;2022-12-18T03:18:46;-7.10;99.90
15819;DHT22;8010;53.986;12.106;2022-12-18T03:21:14;-7.00;99.90
15819;DHT22;8010;53.986;12.106;2022-12-18T03:23:48;-7.00;99.90
15819;DHT22;8010;53.986;12.106;2022-12-18T03:26:18;-7.00;99.90
15819;DHT22;8010;53.986;12.106;2022-12-18T03:28:57;-7.00;99.90
15819;DHT22;8010;53.986;12.106;2022-12-18T03:31:26;-7.00;99.90
15819;DHT22;8010;53.986;12.106;2022-12-18T03:33:58;-7.00;99.90
15819;DHT22;8010;53.986;12.106;2022-12-18T03:36:25;-7.00;99.90
15819;DHT22;8010;53.986;12.106;2022-12-18T03:38:50;-7.00;99.90
15819;DHT22;8010;53.986;12.106;2022-12-18T03:41:31;-6.80;99.90
15819;DHT22;8010;53.986;12.106;2022-12-18T03:44:12;-7.10;99.90
15819;DHT22;8010;53.986;12.106;2022-12-18T03:52:05;-7.00;99.90
15819;DHT22;8010;53.986;12.106;2022-12-18T03:54:33;-6.90;99.90
15819;DHT22;8010;53.986;12.106;2022-12-18T03:57:18;-6.90;99.90
15819;DHT22;8010;53.986;12.106;2022-12-18T03:59:45;-7.00;99.90
15819;DHT22;8010;53.986;12.106;2022-12-18T04:02:13;-7.10;99.90
15819;DHT22;8010;53.986;12.106;2022-12-18T04:04:40;-7.20;99.90
15819;DHT22;8010;53.986;12.106;2022-12-18T04:07:07;-7.10;99.90
15819;DHT22;8010;53.986;12.106;2022-12-18T04:09:34;-7.20;99.90
15819;DHT22;8010;53.986;12.106;2022-12-18T04:12:00;-7.20;99.90
15819;DHT22;8010;53.986;12.106;2022-12-18T04:14:26;-7.20;99.90
15819;DHT22;8010;53.986;12.106;2022-12-18T04:16:51;-7.20;99.90
15819;DHT22;8010;53.986;12.106;2022-12-18T04:19:17;-7.10;99.90
15819;DHT22;8010;53.986;12.106;2022-12-18T04:21:42;-7.10;99.90
15819;DHT22;8010;53.986;12.106;2022-12-18T04:24:08;-7.10;99.90
15819;DHT22;8010;53.986;12.106;2022-12-18T04:26:34;-7.10;99.90
15819;DHT22;8010;53.986;12.106;2022-12-18T04:28:59;-7.10;99.90
15819;DHT22;8010;53.986;12.106;2022-12-18T04:31:25;-7.10;99.90
15819;DHT22;8010;53.986;12.106;2022-12-18T04:33:51;-7.10;99.90
15819;DHT22;8010;53.986;12.106;2022-12-18T04:36:16;-7.00;99.90
15819;DHT22;8010;53.986;12.106;2022-12-18T04:38:42;-7.00;99.90
15819;DHT22;8010;53.986;12.106;2022-12-18T04:41:08;-7.10;99.90
15819;DHT22;8010;53.986;12.106;2022-12-18T04:43:33;-7.10;99.90
15819;DHT22;8010;53.986;12.106;2022-12-18T04:46:06;-7.20;99.90
15819;DHT22;8010;53.986;12.106;2022-12-18T04:48:32;-7.20;99.90
15819;DHT22;8010;53.986;12.106;2022-12-18T04:50:58;-7.30;99.90
15819;DHT22;8010;53.986;12.106;2022-12-18T04:53:23;-7.40;99.90
15819;DHT22;8010;53.986;12.106;2022-12-18T04:55:49;-7.40;99.90
15819;DHT22;8010;53.986;12.106;2022-12-18T04:58:14;-7.50;99.90
15819;DHT22;8010;53.986;12.106;2022-12-18T05:00:40;-7.50;99.90
15819;DHT22;8010;53.986;12.106;2022-12-18T05:03:05;-7.50;99.90
15819;DHT22;8010;53.986;12.106;2022-12-18T05:05:31;-7.60;99.90
15819;DHT22;8010;53.986;12.106;2022-12-18T05:07:57;-7.70;99.90
15819;DHT22;8010;53.986;12.106;2022-12-18T05:10:22;-7.70;99.90
15819;DHT22;8010;53.986;12.106;2022-12-18T05:12:48;-7.80;99.90
15819;DHT22;8010;53.986;12.106;2022-12-18T05:15:29;-7.80;99.90
15819;DHT22;8010;53.986;12.106;2022-12-18T05:17:56;-7.80;99.90
15819;DHT22;8010;53.986;12.106;2022-12-18T05:20:22;-7.80;99.90
15819;DHT22;8010;53.986;12.106;2022-12-18T05:22:48;-7.80;99.90
15819;DHT22;8010;53.986;12.106;2022-12-18T05:25:14;-7.70;99.90
15819;DHT22;8010;53.986;12.106;2022-12-18T05:27:40;-7.70;99.90
15819;DHT22;8010;53.986;12.106;2022-12-18T05:30:06;-7.80;99.90
15819;DHT22;8010;53.986;12.106;2022-12-18T05:32:32;-7.80;99.90
15819;DHT22;8010;53.986;12.106;2022-12-18T05:34:57;-7.80;99.90
15819;DHT22;8010;53.986;12.106;2022-12-18T05:37:23;-7.70;99.90
15819;DHT22;8010;53.986;12.106;2022-12-18T05:39:49;-7.60;99.90
15819;DHT22;8010;53.986;12.106;2022-12-18T05:42:14;-7.60;99.90
15819;DHT22;8010;53.986;12.106;2022-12-18T05:44:40;-7.60;99.90
15819;DHT22;8010;53.986;12.106;2022-12-18T05:47:05;-7.60;99.90
15819;DHT22;8010;53.986;12.106;2022-12-18T05:49:31;-7.60;99.90
15819;DHT22;8010;53.986;12.106;2022-12-18T05:51:57;-7.60;99.90
15819;DHT22;8010;53.986;12.106;2022-12-18T05:54:22;-7.60;99.90
15819;DHT22;8010;53.986;12.106;2022-12-18T05:56:48;-7.60;99.90
15819;DHT22;8010;53.986;12.106;2022-12-18T05:59:13;-7.60;99.90
15819;DHT22;8010;53.986;12.106;2022-12-18T06:01:39;-7.60;99.90
15819;DHT22;8010;53.986;12.106;2022-12-18T06:04:04;-7.50;99.90
15819;DHT22;8010;53.986;12.106;2022-12-18T06:06:30;-7.50;99.90
15819;DHT22;8010;53.986;12.106;2022-12-18T06:08:56;-7.50;99.90
15819;DHT22;8010;53.986;12.106;2022-12-18T06:11:24;-7.40;99.90
15819;DHT22;8010;53.986;12.106;2022-12-18T06:13:51;-7.40;99.90
15819;DHT22;8010;53.986;12.106;2022-12-18T06:16:17;-7.30;99.90
15819;DHT22;8010;53.986;12.106;2022-12-18T06:18:43;-7.30;99.90
15819;DHT22;8010;53.986;12.106;2022-12-18T06:21:08;-7.30;99.90
15819;DHT22;8010;53.986;12.106;2022-12-18T06:23:35;-7.20;99.90
15819;DHT22;8010;53.986;12.106;2022-12-18T06:26:11;-7.20;99.90
15819;DHT22;8010;53.986;12.106;2022-12-18T06:28:37;-7.10;99.90
15819;DHT22;8010;53.986;12.106;2022-12-18T06:31:03;-7.10;99.90
15819;DHT22;8010;53.986;12.106;2022-12-18T06:33:29;-7.10;99.90
15819;DHT22;8010;53.986;12.106;2022-12-18T06:36:03;-7.00;99.90
15819;DHT22;8010;53.986;12.106;2022-12-18T06:38:30;-7.00;99.90
15819;DHT22;8010;53.986;12.106;2022-12-18T06:40:56;-6.90;99.90
15819;DHT22;8010;53.986;12.106;2022-12-18T06:43:22;-6.90;99.90
15819;DHT22;8010;53.986;12.106;2022-12-18T06:45:47;-7.00;99.90
15819;DHT22;8010;53.986;12.106;2022-12-18T06:48:18;-7.00;99.90
15819;DHT22;8010;53.986;12.106;2022-12-18T06:50:44;-7.00;99.90
15819;DHT22;8010;53.986;12.106;2022-12-18T06:53:10;-7.00;99.90
15819;DHT22;8010;53.986;12.106;2022-12-18T06:55:35;-7.00;99.90
15819;DHT22;8010;53.986;12.106;2022-12-18T06:58:01;-7.10;99.90
15819;DHT22;8010;53.986;12.106;2022-12-18T07:00:26;-7.10;99.90
15819;DHT22;8010;53.986;12.106;2022-12-18T07:02:52;-7.10;99.90
15819;DHT22;8010;53.986;12.106;2022-12-18T07:05:17;-7.10;99.90
15819;DHT22;8010;53.986;12.106;2022-12-18T07:07:43;-7.10;99.90
15819;DHT22;8010;53.986;12.106;2022-12-18T07:10:09;-7.10;99.90
15819;DHT22;8010;53.986;12.106;2022-12-18T07:12:34;-7.20;99.90
15819;DHT22;8010;53.986;12.106;2022-12-18T07:15:00;-7.20;99.90
15819;DHT22;8010;53.986;12.106;2022-12-18T07:17:26;-7.20;99.90
15819;DHT22;8010;53.986;12.106;2022-12-18T07:19:51;-7.20;99.90
15819;DHT22;8010;53.986;12.106;2022-12-18T07:22:17;-7.30;99.90
15819;DHT22;8010;53.986;12.106;2022-12-18T07:24:42;-7.10;99.90
15819;DHT22;8010;53.986;12.106;2022-12-18T07:27:08;-7.40;99.90
15819;DHT22;8010;53.986;12.106;2022-12-18T07:29:34;-7.40;99.90
15819;DHT22;8010;53.986;12.106;2022-12-18T07:31:59;-7.40;99.90
15819;DHT22;8010;53.986;12.106;2022-12-18T07:34:25;-7.30;99.90
15819;DHT22;8010;53.986;12.106;2022-12-18T07:36:50;-7.30;99.90
15819;DHT22;8010;53.986;12.106;2022-12-18T07:39:16;-7.30;99.90
15819;DHT22;8010;53.986;12.106;2022-12-18T07:41:41;-7.30;99.90
15819;DHT22;8010;53.986;12.106;2022-12-18T07:44:11;-7.30;99.90
15819;DHT22;8010;53.986;12.106;2022-12-18T07:46:37;-7.30;99.90
15819;DHT22;8010;53.986;12.106;2022-12-18T07:49:02;-7.30;99.90
15819;DHT22;8010;53.986;12.106;2022-12-18T07:51:28;-7.30;99.90
15819;DHT22;8010;53.986;12.106;2022-12-18T07:53:53;-7.30;99.90
15819;DHT22;8010;53.986;12.106;2022-12-18T07:56:19;-7.20;99.90
15819;DHT22;8010;53.986;12.106;2022-12-18T07:58:48;-7.20;99.90
15819;DHT22;8010;53.986;12.106;2022-12-18T08:01:13;-7.10;99.90
15819;DHT22;8010;53.986;12.106;2022-12-18T08:03:40;-7.10;99.90
15819;DHT22;8010;53.986;12.106;2022-12-18T08:06:08;-7.10;99.90
15819;DHT22;8010;53.986;12.106;2022-12-18T08:08:34;-7.00;99.90
15819;DHT22;8010;53.986;12.106;2022-12-18T08:11:01;-7.00;99.90
15819;DHT22;8010;53.986;12.106;2022-12-18T08:13:27;-6.90;99.90
15819;DHT22;8010;53.986;12.106;2022-12-18T08:15:57;-6.90;99.90
15819;DHT22;8010;53.986;12.106;2022-12-18T08:18:23;-6.90;99.90
15819;DHT22;8010;53.986;12.106;2022-12-18T08:20:49;-6.80;99.90
15819;DHT22;8010;53.986;12.106;2022-12-18T08:23:14;-6.70;99.90
15819;DHT22;8010;53.986;12.106;2022-12-18T08:25:40;-6.70;99.90
15819;DHT22;8010;53.986;12.106;2022-12-18T08:28:05;-6.60;99.90
15819;DHT22;8010;53.986;12.106;2022-12-18T08:30:31;-6.50;99.90
15819;DHT22;8010;53.986;12.106;2022-12-18T08:32:56;-6.50;99.90
15819;DHT22;8010;53.986;12.106;2022-12-18T08:35:23;-6.40;99.90
15819;DHT22;8010;53.986;12.106;2022-12-18T08:37:49;-6.30;99.90
15819;DHT22;8010;53.986;12.106;2022-12-18T08:40:15;-6.20;99.90
15819;DHT22;8010;53.986;12.106;2022-12-18T08:42:40;-6.00;99.90
15819;DHT22;8010;53.986;12.106;2022-12-18T08:45:24;-5.90;99.90
15819;DHT22;8010;53.986;12.106;2022-12-18T08:47:50;-5.70;99.90
15819;DHT22;8010;53.986;12.106;2022-12-18T08:50:16;-5.50;99.90
15819;DHT22;8010;53.986;12.106;2022-12-18T08:52:42;-5.30;99.90
15819;DHT22;8010;53.986;12.106;2022-12-18T08:55:08;-5.10;99.90
15819;DHT22;8010;53.986;12.106;2022-12-18T08:57:34;-4.90;99.90
15819;DHT22;8010;53.986;12.106;2022-12-18T08:59:59;-4.80;99.90
15819;DHT22;8010;53.986;12.106;2022-12-18T09:02:25;-4.60;99.90
15819;DHT22;8010;53.986;12.106;2022-12-18T09:04:50;-4.50;99.90
15819;DHT22;8010;53.986;12.106;2022-12-18T09:07:16;-4.30;99.90
15819;DHT22;8010;53.986;12.106;2022-12-18T09:09:41;-4.30;99.90
15819;DHT22;8010;53.986;12.106;2022-12-18T09:12:07;-4.30;99.90
15819;DHT22;8010;53.986;12.106;2022-12-18T09:14:32;-4.20;99.90
15819;DHT22;8010;53.986;12.106;2022-12-18T09:16:58;-4.20;99.90
15819;DHT22;8010;53.986;12.106;2022-12-18T09:19:23;-4.10;99.90
15819;DHT22;8010;53.986;12.106;2022-12-18T09:21:49;-4.10;99.90
15819;DHT22;8010;53.986;12.106;2022-12-18T09:24:15;-4.10;99.90
15819;DHT22;8010;53.986;12.106;2022-12-18T09:26:41;-3.90;99.90
15819;DHT22;8010;53.986;12.106;2022-12-18T09:29:07;-3.90;99.90
15819;DHT22;8010;53.986;12.106;2022-12-18T09:31:33;-3.90;99.90
15819;DHT22;8010;53.986;12.106;2022-12-18T09:33:58;-3.90;99.90
15819;DHT22;8010;53.986;12.106;2022-12-18T09:36:24;-3.80;99.90
15819;DHT22;8010;53.986;12.106;2022-12-18T09:38:50;-3.80;99.90
15819;DHT22;8010;53.986;12.106;2022-12-18T09:41:40;-3.70;99.90
15819;DHT22;8010;53.986;12.106;2022-12-18T09:44:18;-3.80;99.90
15819;DHT22;8010;53.986;12.106;2022-12-18T09:49:42;-3.80;99.90
15819;DHT22;8010;53.986;12.106;2022-12-18T09:52:25;-3.80;99.90
15819;DHT22;8010;53.986;12.106;2022-12-18T09:57:51;-3.80;99.90
15819;DHT22;8010;53.986;12.106;2022-12-18T10:00:22;-3.70;99.90
15819;DHT22;8010;53.986;12.106;2022-12-18T10:02:49;-3.60;99.90
15819;DHT22;8010;53.986;12.106;2022-12-18T10:05:20;-3.50;99.90
15819;DHT22;8010;53.986;12.106;2022-12-18T10:08:01;-3.40;99.90
15819;DHT22;8010;53.986;12.106;2022-12-18T10:10:32;-3.30;99.90
15819;DHT22;8010;53.986;12.106;2022-12-18T10:21:18;-3.20;99.90
15819;DHT22;8010;53.986;12.106;2022-12-18T10:24:01;-3.10;99.90
15819;DHT22;8010;53.986;12.106;2022-12-18T10:26:31;-3.10;99.90
15819;DHT22;8010;53.986;12.106;2022-12-18T10:28:57;-3.00;99.90
15819;DHT22;8010;53.986;12.106;2022-12-18T10:31:24;-3.00;99.90
15819;DHT22;8010;53.986;12.106;2022-12-18T10:33:50;-2.80;99.90
15819;DHT22;8010;53.986;12.106;2022-12-18T10:36:16;-2.90;99.90
15819;DHT22;8010;53.986;12.106;2022-12-18T10:38:41;-2.90;99.90
15819;DHT22;8010;53.986;12.106;2022-12-18T10:43:47;-3.10;99.90
15819;DHT22;8010;53.986;12.106;2022-12-18T10:46:16;-3.10;99.90
15819;DHT22;8010;53.986;12.106;2022-12-18T10:48:54;-3.10;99.90
15819;DHT22;8010;53.986;12.106;2022-12-18T10:51:28;-3.00;99.90
15819;DHT22;8010;53.986;12.106;2022-12-18T10:53:57;-3.00;99.90
15819;DHT22;8010;53.986;12.106;2022-12-18T10:56:25;-2.90;99.90
15819;DHT22;8010;53.986;12.106;2022-12-18T10:58:59;-2.80;99.90
15819;DHT22;8010;53.986;12.106;2022-12-18T11:01:26;-2.80;99.90
15819;DHT22;8010;53.986;12.106;2022-12-18T11:06:24;-3.00;99.90
15819;DHT22;8010;53.986;12.106;2022-12-18T11:11:27;-3.00;99.90
15819;DHT22;8010;53.986;12.106;2022-12-18T11:14:11;-3.00;99.90
15819;DHT22;8010;53.986;12.106;2022-12-18T11:16:44;-2.80;99.90
15819;DHT22;8010;53.986;12.106;2022-12-18T11:19:34;-2.80;99.90
15819;DHT22;8010;53.986;12.106;2022-12-18T11:22:00;-2.70;99.90
15819;DHT22;8010;53.986;12.106;2022-12-18T11:24:30;-2.70;99.90
15819;DHT22;8010;53.986;12.106;2022-12-18T11:26:58;-2.60;99.90
15819;DHT22;8010;53.986;12.106;2022-12-18T11:34:44;-2.60;99.90
15819;DHT22;8010;53.986;12.106;2022-12-18T11:37:11;-2.60;99.90
15819;DHT22;8010;53.986;12.106;2022-12-18T11:39:43;-2.50;99.90
15819;DHT22;8010;53.986;12.106;2022-12-18T11:42:27;-2.50;99.90
15819;DHT22;8010;53.986;12.106;2022-12-18T11:45:23;-2.60;99.90
15819;DHT22;8010;53.986;12.106;2022-12-18T11:50:49;-2.20;99.90
15819;DHT22;8010;53.986;12.106;2022-12-18T11:53:16;-2.00;99.90
15819;DHT22;8010;53.986;12.106;2022-12-18T11:58:48;-1.60;99.90
15819;DHT22;8010;53.986;12.106;2022-12-18T12:01:50;-1.60;99.90
15819;DHT22;8010;53.986;12.106;2022-12-18T12:10:00;-2.30;99.90
15819;DHT22;8010;53.986;12.106;2022-12-18T12:12:32;-2.40;99.90
15819;DHT22;8010;53.986;12.106;2022-12-18T12:15:43;-2.40;99.90
15819;DHT22;8010;53.986;12.106;2022-12-18T12:26:08;-1.20;99.90
15819;DHT22;8010;53.986;12.106;2022-12-18T12:34:16;-1.00;99.90
15819;DHT22;8010;53.986;12.106;2022-12-18T12:36:52;-1.10;99.90
15819;DHT22;8010;53.986;12.106;2022-12-18T12:39:23;-1.10;99.90
15819;DHT22;8010;53.986;12.106;2022-12-18T12:41:55;-1.40;99.90
15819;DHT22;8010;53.986;12.106;2022-12-18T12:44:52;-1.40;99.90
15819;DHT22;8010;53.986;12.106;2022-12-18T12:47:29;-1.60;99.90
15819;DHT22;8010;53.986;12.106;2022-12-18T12:49:57;-1.90;99.90
15819;DHT22;8010;53.986;12.106;2022-12-18T12:52:40;-2.00;99.90
15819;DHT22;8010;53.986;12.106;2022-12-18T12:55:25;-2.10;99.90
15819;DHT22;8010;53.986;12.106;2022-12-18T13:00:29;-2.00;99.90
15819;DHT22;8010;53.986;12.106;2022-12-18T13:03:03;-2.00;99.90
15819;DHT22;8010;53.986;12.106;2022-12-18T13:05:40;-2.10;99.90
15819;DHT22;8010;53.986;12.106;2022-12-18T13:08:11;-2.30;99.90
15819;DHT22;8010;53.986;12.106;2022-12-18T13:10:41;-2.50;99.90
15819;DHT22;8010;53.986;12.106;2022-12-18T13:13:11;-2.60;99.90
15819;DHT22;8010;53.986;12.106;2022-12-18T13:15:48;-2.60;99.90
15819;DHT22;8010;53.986;12.106;2022-12-18T13:18:20;-2.70;99.90
15819;DHT22;8010;53.986;12.106;2022-12-18T13:25:49;-2.60;99.90
15819;DHT22;8010;53.986;12.106;2022-12-18T13:28:22;-2.60;99.90
15819;DHT22;8010;53.986;12.106;2022-12-18T13:30:57;-2.70;99.90
15819;DHT22;8010;53.986;12.106;2022-12-18T13:36:23;-2.90;99.90
15819;DHT22;8010;53.986;12.106;2022-12-18T13:39:15;-2.90;99.90
15819;DHT22;8010;53.986;12.106;2022-12-18T13:41:54;-3.00;99.90
15819;DHT22;8010;53.986;12.106;2022-12-18T13:44:56;-3.00;99.90
15819;DHT22;8010;53.986;12.106;2022-12-18T13:47:27;-3.10;99.90
15819;DHT22;8010;53.986;12.106;2022-12-18T13:49:56;-3.10;99.90
15819;DHT22;8010;53.986;12.106;2022-12-18T13:52:25;-3.10;99.90
15819;DHT22;8010;53.986;12.106;2022-12-18T13:54:59;-3.10;99.90
15819;DHT22;8010;53.986;12.106;2022-12-18T13:57:31;-3.10;99.90
15819;DHT22;8010;53.986;12.106;2022-12-18T13:59:58;-3.10;99.90
15819;DHT22;8010;53.986;12.106;2022-12-18T14:02:28;-3.20;99.90
15819;DHT22;8010;53.986;12.106;2022-12-18T14:04:54;-3.30;99.90
15819;DHT22;8010;53.986;12.106;2022-12-18T14:07:25;-3.30;99.90
15819;DHT22;8010;53.986;12.106;2022-12-18T14:09:56;-3.30;99.90
15819;DHT22;8010;53.986;12.106;2022-12-18T14:12:25;-3.30;99.90
15819;DHT22;8010;53.986;12.106;2022-12-18T14:17:54;-3.30;99.90
15819;DHT22;8010;53.986;12.106;2022-12-18T14:20:21;-3.30;99.90
15819;DHT22;8010;53.986;12.106;2022-12-18T14:22:48;-3.30;99.90
15819;DHT22;8010;53.986;12.106;2022-12-18T14:25:19;-3.30;99.90
15819;DHT22;8010;53.986;12.106;2022-12-18T14:27:49;-3.30;99.90
15819;DHT22;8010;53.986;12.106;2022-12-18T14:35:36;-3.60;99.90
15819;DHT22;8010;53.986;12.106;2022-12-18T14:38:22;-3.60;99.90
15819;DHT22;8010;53.986;12.106;2022-12-18T14:40:59;-3.70;99.90
15819;DHT22;8010;53.986;12.106;2022-12-18T14:43:27;-3.70;99.90
15819;DHT22;8010;53.986;12.106;2022-12-18T14:45:53;-3.80;99.90
15819;DHT22;8010;53.986;12.106;2022-12-18T14:48:36;-3.80;99.90
15819;DHT22;8010;53.986;12.106;2022-12-18T14:56:28;-3.90;99.90
15819;DHT22;8010;53.986;12.106;2022-12-18T14:59:06;-4.00;99.90
15819;DHT22;8010;53.986;12.106;2022-12-18T15:01:45;-4.00;99.90
15819;DHT22;8010;53.986;12.106;2022-12-18T15:04:27;-4.00;99.90
15819;DHT22;8010;53.986;12.106;2022-12-18T15:09:32;-4.10;99.90
15819;DHT22;8010;53.986;12.106;2022-12-18T15:12:00;-4.10;99.90
15819;DHT22;8010;53.986;12.106;2022-12-18T15:14:39;-4.20;99.90
15819;DHT22;8010;53.986;12.106;2022-12-18T15:17:17;-4.20;99.90
15819;DHT22;8010;53.986;12.106;2022-12-18T15:19:44;-4.20;99.90
15819;DHT22;8010;53.986;12.106;2022-12-18T15:22:25;-4.20;99.90
15819;DHT22;8010;53.986;12.106;2022-12-18T15:24:52;-4.20;99.90
15819;DHT22;8010;53.986;12.106;2022-12-18T15:27:32;-4.30;99.90
15819;DHT22;8010;53.986;12.106;2022-12-18T15:32:33;-4.20;99.90
15819;DHT22;8010;53.986;12.106;2022-12-18T15:35:14;-4.20;99.90
15819;DHT22;8010;53.986;12.106;2022-12-18T15:37:41;-4.10;99.90
15819;DHT22;8010;53.986;12.106;2022-12-18T15:40:29;-4.20;99.90
15819;DHT22;8010;53.986;12.106;2022-12-18T15:42:54;-4.20;99.90
15819;DHT22;8010;53.986;12.106;2022-12-18T15:45:39;-4.20;99.90
15819;DHT22;8010;53.986;12.106;2022-12-18T15:48:21;-4.30;99.90
15819;DHT22;8010;53.986;12.106;2022-12-18T15:50:51;-4.30;99.90
15819;DHT22;8010;53.986;12.106;2022-12-18T15:53:17;-4.30;99.90
15819;DHT22;8010;53.986;12.106;2022-12-18T15:55:43;-4.30;99.90
15819;DHT22;8010;53.986;12.106;2022-12-18T15:58:27;-4.30;99.90
15819;DHT22;8010;53.986;12.106;2022-12-18T16:00:55;-4.40;99.90
15819;DHT22;8010;53.986;12.106;2022-12-18T16:03:21;-4.40;99.90
15819;DHT22;8010;53.986;12.106;2022-12-18T16:05:47;-4.40;99.90
15819;DHT22;8010;53.986;12.106;2022-12-18T16:08:12;-4.40;99.90
15819;DHT22;8010;53.986;12.106;2022-12-18T16:10:38;-4.50;99.90
15819;DHT22;8010;53.986;12.106;2022-12-18T16:13:03;-4.50;99.90
15819;DHT22;8010;53.986;12.106;2022-12-18T16:15:29;-4.60;99.90
15819;DHT22;8010;53.986;12.106;2022-12-18T16:17:54;-4.60;99.90
15819;DHT22;8010;53.986;12.106;2022-12-18T16:20:21;-4.70;99.90
15819;DHT22;8010;53.986;12.106;2022-12-18T16:22:48;-4.70;99.90
15819;DHT22;8010;53.986;12.106;2022-12-18T16:25:26;-4.70;99.90
15819;DHT22;8010;53.986;12.106;2022-12-18T16:27:53;-4.70;99.90
15819;DHT22;8010;53.986;12.106;2022-12-18T16:30:24;-4.70;99.90
15819;DHT22;8010;53.986;12.106;2022-12-18T16:32:52;-4.60;99.90
15819;DHT22;8010;53.986;12.106;2022-12-18T16:35:18;-4.70;99.90
15819;DHT22;8010;53.986;12.106;2022-12-18T16:37:43;-4.70;99.90
15819;DHT22;8010;53.986;12.106;2022-12-18T16:40:11;-4.70;99.90
15819;DHT22;8010;53.986;12.106;2022-12-18T16:42:39;-4.80;99.90
15819;DHT22;8010;53.986;12.106;2022-12-18T16:45:06;-4.70;99.90
15819;DHT22;8010;53.986;12.106;2022-12-18T16:47:33;-4.70;99.90
15819;DHT22;8010;53.986;12.106;2022-12-18T16:49:58;-4.70;99.90
15819;DHT22;8010;53.986;12.106;2022-12-18T16:52:24;-4.70;99.90
15819;DHT22;8010;53.986;12.106;2022-12-18T16:54:50;-4.70;99.90
15819;DHT22;8010;53.986;12.106;2022-12-18T16:57:18;-4.70;99.90
15819;DHT22;8010;53.986;12.106;2022-12-18T16:59:44;-4.70;99.90
15819;DHT22;8010;53.986;12.106;2022-12-18T17:02:21;-4.70;99.90
15819;DHT22;8010;53.986;12.106;2022-12-18T17:04:47;-4.80;99.90
15819;DHT22;8010;53.986;12.106;2022-12-18T17:07:14;-4.80;99.90
15819;DHT22;8010;53.986;12.106;2022-12-18T17:09:40;-4.80;99.90
15819;DHT22;8010;53.986;12.106;2022-12-18T17:12:06;-4.80;99.90
15819;DHT22;8010;53.986;12.106;2022-12-18T17:14:32;-4.80;99.90
15819;DHT22;8010;53.986;12.106;2022-12-18T17:16:58;-4.90;99.90
15819;DHT22;8010;53.986;12.106;2022-12-18T17:19:25;-4.90;99.90
15819;DHT22;8010;53.986;12.106;2022-12-18T17:21:50;-4.90;99.90
15819;DHT22;8010;53.986;12.106;2022-12-18T17:24:17;-4.90;99.90
15819;DHT22;8010;53.986;12.106;2022-12-18T17:26:43;-4.90;99.90